Map

Track Data

SID SEASON NUMBER BASIN SUBBASIN NAME ISO_TIME NATURE LAT LON WMO_WIND WMO_PRES WMO_AGENCY TRACK_TYPE DIST2LAND LANDFALL IFLAG USA_AGENCY USA_ATCF_ID USA_LAT USA_LON USA_RECORD USA_STATUS USA_WIND USA_PRES USA_SSHS USA_R34_NE USA_R34_SE USA_R34_SW USA_R34_NW USA_R50_NE USA_R50_SE USA_R50_SW USA_R50_NW USA_R64_NE USA_R64_SE USA_R64_SW USA_R64_NW USA_POCI USA_ROCI USA_RMW USA_EYE TOKYO_LAT TOKYO_LON TOKYO_GRADE TOKYO_WIND TOKYO_PRES TOKYO_R50_DIR TOKYO_R50_LONG TOKYO_R50_SHORT TOKYO_R30_DIR TOKYO_R30_LONG TOKYO_R30_SHORT TOKYO_LAND CMA_LAT CMA_LON CMA_CAT CMA_WIND CMA_PRES HKO_LAT HKO_LON HKO_CAT HKO_WIND HKO_PRES NEWDELHI_LAT NEWDELHI_LON NEWDELHI_GRADE NEWDELHI_WIND NEWDELHI_PRES NEWDELHI_CI NEWDELHI_DP NEWDELHI_POCI REUNION_LAT REUNION_LON REUNION_TYPE REUNION_WIND REUNION_PRES REUNION_TNUM REUNION_CI REUNION_RMW REUNION_R34_NE REUNION_R34_SE REUNION_R34_SW REUNION_R34_NW REUNION_R50_NE REUNION_R50_SE REUNION_R50_SW REUNION_R50_NW REUNION_R64_NE REUNION_R64_SE REUNION_R64_SW REUNION_R64_NW BOM_LAT BOM_LON BOM_TYPE BOM_WIND BOM_PRES BOM_TNUM BOM_CI BOM_RMW BOM_R34_NE BOM_R34_SE BOM_R34_SW BOM_R34_NW BOM_R50_NE BOM_R50_SE BOM_R50_SW BOM_R50_NW BOM_R64_NE BOM_R64_SE BOM_R64_SW BOM_R64_NW BOM_ROCI BOM_POCI BOM_EYE BOM_POS_METHOD BOM_PRES_METHOD NADI_LAT NADI_LON NADI_CAT NADI_WIND NADI_PRES WELLINGTON_LAT WELLINGTON_LON WELLINGTON_WIND WELLINGTON_PRES DS824_LAT DS824_LON DS824_STAGE DS824_WIND DS824_PRES TD9636_LAT TD9636_LON TD9636_STAGE TD9636_WIND TD9636_PRES TD9635_LAT TD9635_LON TD9635_WIND TD9635_PRES TD9635_ROCI NEUMANN_LAT NEUMANN_LON NEUMANN_CLASS NEUMANN_WIND NEUMANN_PRES MLC_LAT MLC_LON MLC_CLASS MLC_WIND MLC_PRES USA_GUST BOM_GUST BOM_GUST_PER REUNION_GUST REUNION_GUST_PER USA_SEAHGT USA_SEARAD_NE USA_SEARAD_SE USA_SEARAD_SW USA_SEARAD_NW STORM_SPEED STORM_DIR
1929051S18151 1929 19 SP EA NOT_NAMED 1929-02-19 23:00:00 NR -18.0000 151.100 bom main 352 337 ______O___O___ -1 -18.3000 151.100 -17.7000 151.100 7 7 210
1929051S18151 1929 19 SP EA NOT_NAMED 1929-02-20 00:00:00 NR -18.0969 151.038 main 337 306 ______P___P___ -1 -18.3536 151.041 -17.8401 151.035 7 7 211
1929051S18151 1929 19 SP EA NOT_NAMED 1929-02-20 03:00:00 NR -18.3876 150.855 main 306 267 ______P___P___ -1 -18.5178 150.868 -18.2573 150.842 7 7 210
1929051S18151 1929 19 SP EA NOT_NAMED 1929-02-20 06:00:00 NR -18.6790 150.686 main 267 229 ______P___P___ -1 -18.6937 150.713 -18.6644 150.659 7 7 207
1929051S18151 1929 19 SP EA NOT_NAMED 1929-02-20 09:00:00 NR -18.9720 150.543 main 229 216 ______P___P___ -1 -18.8902 150.590 -19.0539 150.495 7 6 203
1929051S18151 1929 19 SP EA NOT_NAMED 1929-02-20 11:00:00 NR -19.1686 150.466 main 216 207 ______P___O___ -1 -19.0372 150.533 -19.3000 150.400 7 6 199
1929051S18151 1929 19 SP EA NOT_NAMED 1929-02-20 12:00:00 TS -19.2487 150.443 main 207 201 ______P__OP___ -1 -19.1164 150.513 -19.1000 150.500 TC -19.4182 150.358 7 5 196
1929051S18151 1929 19 SP EA NOT_NAMED 1929-02-20 13:00:00 TS -19.3297 150.433 bom main 201 189 ______O__PP___ -1 -19.2000 150.500 -19.1834 150.525 TC -19.5327 150.320 7 5 0
1929051S18151 1929 19 SP EA NOT_NAMED 1929-02-20 15:00:00 TS -19.5059 150.431 main 189 180 ______P__PP___ -1 -19.3794 150.495 -19.3500 150.575 TC -19.7493 150.259 7 5 175
1929051S18151 1929 19 SP EA NOT_NAMED 1929-02-20 18:00:00 TS -19.7672 150.466 main 184 176 ______P__PP___ -1 -19.6633 150.534 -19.6001 150.650 TC -20.0381 150.214 7 5 171
1929051S18151 1929 19 SP EA NOT_NAMED 1929-02-20 21:00:00 TS -20.0210 150.528 main 176 172 ______P__PP___ -1 -19.9376 150.620 -19.8501 150.725 TC -20.2752 150.238 7 5 164
1929051S18151 1929 19 SP EA NOT_NAMED 1929-02-20 23:00:00 TS -20.1722 150.592 bom main 177 177 ______O__PO___ -1 -20.1000 150.700 -20.0167 150.775 TC -20.4000 150.300 7 5 156
1929051S18151 1929 19 SP EA NOT_NAMED 1929-02-21 00:00:00 TS -20.2411 150.629 main 177 170 ______P__OP___ -1 -20.1664 150.739 -20.1000 150.800 TC -20.4568 150.346 7 4 132
1929051S18151 1929 19 SP EA NOT_NAMED 1929-02-21 03:00:00 TS -20.3599 150.814 main 183 183 ______P__PP___ -1 -20.3311 150.884 -20.1634 151.012 TC -20.5852 150.546 7 4 118
1929051S18151 1929 19 SP EA NOT_NAMED 1929-02-21 06:00:00 TS -20.4454 151.033 main 202 202 ______P__PP___ -1 -20.4497 151.065 -20.2265 151.224 TC -20.6601 150.810 7 5 109
1929051S18151 1929 19 SP EA NOT_NAMED 1929-02-21 09:00:00 TS -20.5043 151.271 main 221 221 ______P__PP___ -1 -20.5295 151.273 -20.2894 151.436 TC -20.6940 151.104 7 5 103
1929051S18151 1929 19 SP EA NOT_NAMED 1929-02-21 11:00:00 TS -20.5320 151.434 main 224 224 ______P__PO___ -1 -20.5647 151.424 -20.3312 151.578 TC -20.7000 151.300 7 5 100
1929051S18151 1929 19 SP EA NOT_NAMED 1929-02-21 12:00:00 TS -20.5445 151.512 main 228 221 ______P__PP___ -1 -20.5776 151.502 -20.3521 151.649 TC -20.7038 151.386 7 4 97
1929051S18151 1929 19 SP EA NOT_NAMED 1929-02-21 15:00:00 TS -20.5695 151.750 main 231 231 ______P__PP___ -1 -20.6013 151.745 -20.4144 151.861 TC -20.6928 151.645 7 4 95
1929051S18151 1929 19 SP EA NOT_NAMED 1929-02-21 18:00:00 TS -20.5815 151.989 main 242 242 ______P__PP___ -1 -20.6077 151.993 -20.4766 152.074 TC -20.6601 151.900 7 4 93
1929051S18151 1929 19 SP EA NOT_NAMED 1929-02-21 21:00:00 TS -20.5925 152.218 main 254 254 ______P__PP___ -1 -20.6042 152.240 -20.5384 152.287 TC -20.6214 152.145 7 4 92
1929051S18151 1929 19 SP EA NOT_NAMED 1929-02-21 23:00:00 TS -20.5959 152.366 996 bom main 267 267 ______O__PO___ -1 -20.6000 152.400 996 4 -20.5795 152.429 TC -20.6000 152.300 7 4 91
1929051S18151 1929 19 SP EA NOT_NAMED 1929-02-22 00:00:00 TS -20.5960 152.435 main 267 267 ______P__OP___ -1 -20.5981 152.478 -20.6000 152.500 TC 35 996 -20.5929 152.376 7 4 88
1929051S18151 1929 19 SP EA NOT_NAMED 1929-02-22 03:00:00 NR -20.5847 152.648 main 281 281 ______P___P___ -1 -20.5938 152.704 TC -20.5757 152.593 7 4 88
1929051S18151 1929 19 SP EA NOT_NAMED 1929-02-22 06:00:00 NR -20.5804 152.857 main 303 303 ______P___P___ -1 -20.5914 152.918 TC -20.5694 152.796 7 4 90
1929051S18151 1929 19 SP EA NOT_NAMED 1929-02-22 09:00:00 NR -20.5855 153.053 main 318 318 ______P___P___ -1 -20.5907 153.122 TC -20.5802 152.983 7 4 93
1929051S18151 1929 19 SP EA NOT_NAMED 1929-02-22 11:00:00 NR -20.5955 153.177 main 326 326 ______P___O___ -1 -20.5910 153.254 TC -20.6000 153.100 7 3 96
1929051S18151 1929 19 SP EA NOT_NAMED 1929-02-22 12:00:00 NR -20.6028 153.237 main 326 326 ______P___P___ -1 -20.5914 153.319 TC -20.6143 153.156 7 3 100
1929051S18151 1929 19 SP EA NOT_NAMED 1929-02-22 15:00:00 NR -20.6330 153.412 main 342 342 ______P___P___ -1 -20.5930 153.509 TC -20.6729 153.315 7 3 102
1929051S18151 1929 19 SP EA NOT_NAMED 1929-02-22 18:00:00 NR -20.6726 153.580 main 352 352 ______P___P___ -1 -20.5954 153.695 TC -20.7498 153.464 7 3 105
1929051S18151 1929 19 SP EA NOT_NAMED 1929-02-22 21:00:00 NR -20.7182 153.742 main 361 361 ______P___P___ -1 -20.5981 153.879 TC -20.8382 153.606 7 3 107
1929051S18151 1929 19 SP EA NOT_NAMED 1929-02-22 23:00:00 NR -20.7500 153.850 bom main 378 ______O___O___ -1 -20.6000 154.000 TC -20.9000 153.700 7 3 108

Digital Typhoon Data and Search

About IBTrACS Database

This database is a web-friendly format of International Best Track Archive for Climate Stewardship (IBTrACS), a global best track data archive curated by NOAA dating back to 1842.

Updated: 2021-12-03